| time (UTC) | temp C | wind direction | speed KPH | gust KPH | rain 1hr cm | rain 24hr cm | rain mn cm | humidity % | barometer mb |
| 20260506205042 | 13 | 89 | 8.0 | 8.0 | 0.00 | 2.26 | 2.26 | 76 | 1016.6 |
| 20260506204058 | 13 | 89 | 8.0 | 8.0 | 0.00 | 2.26 | 2.26 | 77 | 1015.8 |
| 20260506203034 | 13 | 89 | 8.0 | 8.0 | 0.00 | 2.26 | 2.26 | 76 | 1015.6 |
| 20260506202120 | 13 | 89 | 8.0 | 8.0 | 0.00 | 2.26 | 2.26 | 77 | 1015.6 |
| 20260506201059 | 13 | 89 | 8.0 | 8.0 | 0.00 | 2.26 | 2.26 | 77 | 1016.3 |
| 20260506200044 | 13 | 89 | 8.0 | 8.0 | 0.00 | 2.26 | 2.26 | 77 | 1016.0 |
| 20260506195029 | 14 | 89 | 8.0 | 8.0 | 0.00 | 2.26 | 2.26 | 77 | 1015.6 |
| 20260506194111 | 14 | 89 | 8.0 | 8.0 | 0.00 | 2.26 | 2.26 | 76 | 1015.0 |
| 20260506193056 | 14 | 89 | 8.0 | 8.0 | 0.00 | 2.26 | 2.26 | 76 | 1014.6 |
| 20260506192035 | 14 | 89 | 8.0 | 8.0 | 0.00 | 2.26 | 2.26 | 76 | 1014.6 |
| 20260506191021 | 14 | 89 | 8.0 | 8.0 | 0.00 | 2.26 | 2.26 | 76 | 1015.1 |
| 20260506190104 | 15 | 89 | 8.0 | 8.0 | 0.00 | 2.26 | 2.26 | 76 | 1015.6 |
| 20260506185046 | 15 | 89 | 8.0 | 8.0 | 0.00 | 2.26 | 2.26 | 77 | 1015.6 |
| 20260506184032 | 15 | 89 | 8.0 | 8.0 | 0.00 | 2.26 | 2.26 | 77 | 1015.3 |
| 20260506183115 | 15 | 89 | 8.0 | 8.0 | 0.00 | 2.26 | 2.26 | 76 | 1014.8 |
| 20260506182059 | 15 | 89 | 8.0 | 8.0 | 0.00 | 2.26 | 2.26 | 75 | 1015.6 |
| 20260506181034 | 15 | 89 | 8.0 | 8.0 | 0.00 | 2.26 | 2.26 | 75 | 1015.6 |
| 20260506180120 | 16 | 89 | 8.0 | 8.0 | 0.00 | 2.26 | 2.26 | 74 | 1014.6 |
| 20260506175059 | 16 | 89 | 8.0 | 8.0 | 0.00 | 2.26 | 2.26 | 75 | 1014.6 |
| 20260506174044 | 16 | 89 | 8.0 | 8.0 | 0.00 | 2.26 | 2.26 | 74 | 1015.6 |
| 20260506173026 | 16 | 89 | 8.0 | 8.0 | 0.00 | 2.26 | 2.26 | 72 | 1014.6 |
| 20260506172131 | 16 | 89 | 8.0 | 8.0 | 0.00 | 2.26 | 2.26 | 72 | 1014.6 |
| 20260506171115 | 16 | 89 | 8.0 | 8.0 | 0.00 | 2.26 | 2.26 | 73 | 1014.6 |
| 20260506170115 | 16 | 89 | 8.0 | 8.0 | 0.00 | 2.26 | 2.26 | 74 | 1014.6 |
| 20260506165020 | 16 | 89 | 8.0 | 8.0 | 0.00 | 2.26 | 2.26 | 74 | 1014.6 |
| 20260506164104 | 17 | 89 | 8.0 | 8.0 | 0.00 | 2.26 | 2.26 | 74 | 1014.6 |
| 20260506163046 | 17 | 89 | 8.0 | 8.0 | 0.00 | 2.26 | 2.26 | 74 | 1013.6 |
| 20260506162031 | 17 | 89 | 8.0 | 8.0 | 0.00 | 2.29 | 2.26 | 74 | 1013.6 |
| 20260506161108 | 16 | 89 | 8.0 | 8.0 | 0.00 | 2.34 | 2.26 | 74 | 1014.6 |
| 20260506160044 | 16 | 89 | 8.0 | 8.0 | 0.00 | 2.34 | 2.26 | 75 | 1014.6 |
| 20260506155020 | 16 | 89 | 8.0 | 8.0 | 0.00 | 2.34 | 2.26 | 75 | 1014.6 |
| 20260506154104 | 16 | 49 | 8.0 | 8.0 | 0.00 | 2.34 | 2.26 | 78 | 1014.6 |
| 20260506153107 | 16 | 56 | 6.4 | 6.4 | 0.00 | 2.34 | 2.26 | 77 | 1013.6 |
| 20260506152032 | 16 | 49 | 8.0 | 8.0 | 0.00 | 2.34 | 2.26 | 80 | 1013.6 |
| 20260506151110 | 16 | 56 | 6.4 | 6.4 | 0.00 | 2.34 | 2.26 | 79 | 1014.6 |
| 20260506150051 | 16 | 49 | 8.0 | 8.0 | 0.00 | 2.34 | 2.26 | 79 | 1014.6 |
| 20260506145034 | 16 | 56 | 6.4 | 8.0 | 0.00 | 2.34 | 2.26 | 79 | 1014.6 |
| 20260506144120 | 15 | 48 | 8.0 | 8.0 | 0.00 | 2.34 | 2.26 | 79 | 1015.4 |
| 20260506143100 | 15 | 46 | 8.0 | 8.0 | 0.00 | 2.34 | 2.26 | 80 | 1015.6 |
| 20260506142044 | 15 | 46 | 8.0 | 8.0 | 0.00 | 2.39 | 2.26 | 79 | 1015.6 |
| 20260506141027 | 15 | 65 | 6.4 | 8.0 | 0.00 | 2.44 | 2.26 | 77 | 1014.9 |
| 20260506140130 | 15 | 76 | 6.4 | 6.4 | 0.03 | 2.49 | 2.26 | 77 | 1014.6 |
| 20260506135056 | 15 | 76 | 6.4 | 6.4 | 0.05 | 2.49 | 2.26 | 78 | 1014.6 |
| 20260506134055 | 15 | 76 | 6.4 | 6.4 | 0.05 | 2.51 | 2.26 | 79 | 1015.6 |
| 20260506133040 | 15 | 76 | 6.4 | 6.4 | 0.10 | 2.51 | 2.26 | 79 | 1016.6 |
| 20260506132104 | 15 | 76 | 6.4 | 6.4 | 0.13 | 2.54 | 2.26 | 79 | 1016.2 |
| 20260506131046 | 15 | 76 | 6.4 | 9.7 | 0.20 | 2.54 | 2.26 | 80 | 1015.6 |
| 20260506130031 | 15 | 76 | 6.4 | 6.4 | 0.43 | 2.51 | 2.21 | 82 | 1015.6 |
| 20260506125115 | 14 | 76 | 6.4 | 6.4 | 0.53 | 2.49 | 2.18 | 84 | 1015.6 |
| 20260506124057 | 15 | 76 | 6.4 | 6.4 | 0.56 | 2.49 | 2.18 | 79 | 1015.6 |
| 20260506123039 | 15 | 76 | 6.4 | 6.4 | 0.56 | 2.46 | 2.16 | 79 | 1015.6 |
| 20260506122022 | 15 | 76 | 6.4 | 6.4 | 0.53 | 2.44 | 2.13 | 79 | 1014.6 |
| 20260506121109 | 14 | 76 | 6.4 | 6.4 | 0.46 | 2.34 | 2.03 | 81 | 1014.6 |
| 20260506120047 | 14 | 76 | 6.4 | 6.4 | 0.20 | 2.11 | 1.80 | 87 | 1016.6 |
| 20260506115026 | 15 | 76 | 6.4 | 6.4 | 0.05 | 1.96 | 1.65 | 87 | 1015.6 |
| 20260506114110 | 15 | 76 | 6.4 | 6.4 | 0.05 | 1.93 | 1.63 | 86 | 1015.6 |
| 20260506113055 | 15 | 76 | 6.4 | 6.4 | 0.03 | 1.88 | 1.60 | 83 | 1016.6 |
| 20260506112034 | 15 | 76 | 6.4 | 6.4 | 0.03 | 1.88 | 1.60 | 77 | 1016.6 |
| 20260506111020 | 14 | 76 | 6.4 | 6.4 | 0.03 | 1.88 | 1.60 | 77 | 1015.6 |
| 20260506110103 | 14 | 56 | 4.8 | 4.8 | 0.03 | 1.88 | 1.60 | 77 | 1015.6 |
| 20260506105046 | 14 | 56 | 4.8 | 4.8 | 0.03 | 1.88 | 1.60 | 77 | 1015.6 |
| 20260506104031 | 15 | 56 | 4.8 | 4.8 | 0.00 | 1.85 | 1.55 | 76 | 1016.6 |
| 20260506103114 | 15 | 56 | 4.8 | 4.8 | 0.00 | 1.88 | 1.55 | 75 | 1017.6 |
| 20260506102057 | 15 | 56 | 4.8 | 4.8 | 0.00 | 1.93 | 1.55 | 77 | 1017.6 |
| 20260506101059 | 15 | 56 | 4.8 | 4.8 | 0.00 | 1.96 | 1.55 | 83 | 1016.6 |
| 20260506100120 | 15 | 56 | 4.8 | 4.8 | 0.00 | 1.98 | 1.55 | 83 | 1016.6 |
| 20260506095119 | 15 | 56 | 4.8 | 4.8 | 0.00 | 2.03 | 1.55 | 77 | 1016.6 |
| 20260506094045 | 15 | 56 | 4.8 | 4.8 | 0.00 | 2.06 | 1.55 | 77 | 1016.6 |
| 20260506093027 | 15 | 56 | 4.8 | 4.8 | 0.00 | 2.13 | 1.55 | 78 | 1016.6 |
| 20260506092108 | 14 | 56 | 4.8 | 4.8 | 0.00 | 2.13 | 1.55 | 78 | 1017.5 |
| 20260506091047 | 15 | 56 | 4.8 | 4.8 | 0.00 | 2.16 | 1.55 | 80 | 1016.8 |
| 20260506090031 | 14 | 56 | 4.8 | 4.8 | 0.00 | 2.18 | 1.55 | 79 | 1016.6 |
| 20260506085135 | 15 | 56 | 4.8 | 4.8 | 0.00 | 2.18 | 1.55 | 85 | 1016.6 |
| 20260506084138 | 14 | 31 | 3.2 | 4.8 | 0.00 | 2.18 | 1.55 | 82 | 1016.6 |
| 20260506083119 | 14 | 12 | 3.2 | 3.2 | 0.00 | 2.18 | 1.55 | 80 | 1016.6 |
| 20260506082022 | 14 | 12 | 3.2 | 3.2 | 0.00 | 2.18 | 1.55 | 81 | 1016.6 |
| 20260506081109 | 13 | 12 | 3.2 | 3.2 | 0.00 | 2.18 | 1.55 | 82 | 1016.6 |
| 20260506073120 | 13 | 12 | 3.2 | 3.2 | 0.05 | 2.18 | 1.55 | 82 | 1016.6 |
| 20260506071619 | 13 | 12 | 3.2 | 3.2 | 0.15 | 2.18 | 1.55 | 82 | 1015.6 |
| 20260506070545 | 12 | 12 | 3.2 | 3.2 | 0.28 | 2.18 | 1.55 | 83 | 1017.6 |
| 20260506061538 | 12 | 12 | 3.2 | 3.2 | 1.12 | 2.03 | 1.42 | 90 | 1017.6 |
| 20260506060544 | 12 | 12 | 3.2 | 3.2 | 1.04 | 1.93 | 1.30 | 88 | 1016.6 |
| 20260506050603 | 12 | 12 | 3.2 | 3.2 | 0.20 | 0.86 | 0.23 | 80 | 1017.6 |
| 20260506044536 | 12 | 12 | 3.2 | 3.2 | 0.15 | 0.79 | 0.15 | 81 | 1016.6 |
| 20260506043522 | 12 | 12 | 3.2 | 3.2 | 0.10 | 0.71 | 0.10 | 80 | 1016.6 |
| 20260506042630 | 11 | 12 | 3.2 | 3.2 | 0.05 | 0.69 | 0.05 | 80 | 1016.6 |
| 20260506041556 | 11 | 12 | 3.2 | 3.2 | 0.03 | 0.66 | 0.03 | 80 | 1016.6 |
| 20260506040603 | 11 | 12 | 3.2 | 3.2 | 0.03 | 0.66 | 0.03 | 80 | 1016.6 |
| 20260506035528 | 11 | 12 | 3.2 | 3.2 | 0.00 | 0.64 | 0.00 | 80 | 1016.6 |
| 20260506034615 | 11 | 12 | 3.2 | 3.2 | 0.00 | 0.64 | 0.00 | 80 | 1016.6 |
| 20260506033558 | 11 | 12 | 3.2 | 3.2 | 0.00 | 0.64 | 0.00 | 80 | 1016.6 |
| 20260506032545 | 11 | 12 | 3.2 | 3.2 | 0.00 | 0.64 | 0.00 | 79 | 1015.8 |
| 20260506031551 | 11 | 12 | 3.2 | 3.2 | 0.00 | 0.64 | 0.00 | 79 | 1015.6 |
| 20260506030518 | 11 | 12 | 3.2 | 3.2 | 0.00 | 0.64 | 0.00 | 77 | 1017.3 |
| 20260506025625 | 11 | 12 | 3.2 | 3.2 | 0.00 | 0.64 | 0.00 | 77 | 1017.6 |
| 20260506024551 | 11 | 12 | 3.2 | 3.2 | 0.00 | 0.64 | 0.00 | 80 | 1017.6 |
| 20260506023537 | 11 | 12 | 3.2 | 3.2 | 0.00 | 0.64 | 0.00 | 81 | 1017.0 |
| 20260506022524 | 11 | 12 | 3.2 | 3.2 | 0.00 | 0.64 | 0.00 | 81 | 1016.6 |
| 20260506021611 | 11 | 12 | 3.2 | 3.2 | 0.00 | 0.64 | 0.00 | 81 | 1017.2 |
| 20260506020556 | 11 | 12 | 3.2 | 3.2 | 0.00 | 0.64 | 0.00 | 81 | 1017.6 |
| 20260506015542 | 11 | 12 | 3.2 | 3.2 | 0.00 | 0.64 | 0.00 | 81 | 1017.1 |
| 20260506014529 | 11 | 12 | 3.2 | 3.2 | 0.00 | 0.64 | 0.00 | 81 | 1016.6 |
| 20260506013616 | 11 | 5 | 4.8 | 4.8 | 0.00 | 0.64 | 0.00 | 81 | 1017.1 |
| 20260506012603 | 11 | 2 | 4.8 | 4.8 | 0.00 | 0.64 | 0.00 | 81 | 1017.6 |
| 20260506011549 | 11 | 2 | 4.8 | 4.8 | 0.00 | 0.64 | 0.00 | 80 | 1017.6 |
| 20260506010535 | 11 | 2 | 4.8 | 4.8 | 0.00 | 0.64 | 0.00 | 80 | 1017.6 |
| 20260506005522 | 11 | 4 | 4.8 | 4.8 | 0.00 | 0.64 | 0.00 | 80 | 1017.6 |
| 20260506004609 | 11 | 23 | 3.2 | 3.2 | 0.00 | 0.64 | 0.00 | 80 | 1017.6 |
| 20260506003556 | 11 | 11 | 1.6 | 1.6 | 0.00 | 0.64 | 0.00 | 79 | 1016.6 |
| 20260506002543 | 11 | 11 | 1.6 | 1.6 | 0.00 | 0.64 | 0.00 | 79 | 1018.6 |
| 20260506001609 | 11 | 11 | 1.6 | 1.6 | 0.00 | 0.64 | 0.00 | 79 | 1018.6 |
| 20260506000616 | 12 | 11 | 1.6 | 1.6 | 0.00 | 0.64 | 0.00 | 79 | 1017.6 |
| 20260505235603 | 12 | 11 | 1.6 | 1.6 | 0.00 | 0.64 | 0.00 | 79 | 1017.6 |
| 20260505234549 | 12 | 11 | 1.6 | 1.6 | 0.00 | 0.64 | 0.00 | 78 | 1017.6 |
| 20260505233616 | 12 | 11 | 1.6 | 1.6 | 0.00 | 0.64 | 0.00 | 74 | 1018.6 |
| 20260505232522 | 12 | 11 | 1.6 | 1.6 | 0.00 | 0.64 | 0.00 | 73 | 1018.6 |
| 20260505231611 | 12 | 11 | 1.6 | 1.6 | 0.00 | 0.64 | 0.00 | 76 | 1017.6 |
| 20260505230556 | 12 | 11 | 1.6 | 1.6 | 0.00 | 0.64 | 0.00 | 80 | 1018.6 |
| 20260505225543 | 12 | 63 | 9.7 | 9.7 | 0.00 | 0.64 | 0.00 | 80 | 1018.6 |
| 20260505224529 | 12 | 63 | 9.7 | 9.7 | 0.00 | 0.64 | 0.00 | 79 | 1017.6 |
| 20260505223617 | 12 | 63 | 9.7 | 9.7 | 0.00 | 0.64 | 0.00 | 79 | 1017.6 |
| 20260505222604 | 12 | 63 | 9.7 | 9.7 | 0.00 | 0.64 | 0.00 | 79 | 1019.6 |
| 20260505221629 | 12 | 63 | 9.7 | 9.7 | 0.00 | 0.64 | 0.00 | 79 | 1019.6 |
| 20260505220537 | 12 | 63 | 9.7 | 9.7 | 0.00 | 0.64 | 0.00 | 80 | 1018.6 |
| 20260505215522 | 13 | 63 | 9.7 | 9.7 | 0.00 | 0.64 | 0.64 | 80 | 1018.6 |
| 20260505214630 | 13 | 63 | 9.7 | 9.7 | 0.00 | 0.64 | 0.64 | 80 | 1018.6 |
| 20260505213555 | 13 | 63 | 9.7 | 9.7 | 0.00 | 0.64 | 0.64 | 80 | 1017.6 |
| 20260505212542 | 13 | 63 | 9.7 | 9.7 | 0.00 | 0.64 | 0.64 | 80 | 1019.6 |
| 20260505211528 | 13 | 63 | 9.7 | 9.7 | 0.00 | 0.64 | 0.64 | 80 | 1019.6 |
| 20260505210615 | 13 | 63 | 9.7 | 9.7 | 0.00 | 0.64 | 0.64 | 79 | 1019.6 |
| 20260505205559 | 13 | 63 | 9.7 | 9.7 | 0.00 | 0.64 | 0.64 | 80 | 1018.6 |